Time;durP1;ratioP1;P1;durP2;ratioP2;P2;SDS_P1;SDS_P2;PMS_P1;PMS_P2;Temp;Humidity;BMP_temperature;BMP_pressure;BME280_temperature;BME280_humidity;BME280_pressure;Samples;Min_cycle;Max_cycle;Signal;HPM_P1;HPM_P2
2021/06/09 00:01:50;;;;;;;19.93;17.93;;;14.90;99.90;;;;;;5021381;28;20708;-77
2021/06/09 00:04:16;;;;;;;22.43;20.20;;;14.90;99.90;;;;;;5021908;28;20223;-77
2021/06/09 00:06:43;;;;;;;20.73;18.73;;;14.90;99.90;;;;;;5013186;28;20201;-79
2021/06/09 00:09:10;;;;;;;23.77;21.27;;;14.90;99.90;;;;;;5021932;28;20192;-78
2021/06/09 00:11:37;;;;;;;21.60;19.40;;;14.90;99.90;;;;;;5020462;28;20613;-77
2021/06/09 00:14:04;;;;;;;22.97;20.67;;;14.80;99.90;;;;;;5015401;28;20216;-77
2021/06/09 00:16:31;;;;;;;20.77;18.63;;;14.80;99.90;;;;;;5018338;28;20192;-77
2021/06/09 00:18:57;;;;;;;22.27;20.07;;;14.70;99.90;;;;;;5020854;28;20210;-77
2021/06/09 00:21:24;;;;;;;21.37;18.97;;;14.70;99.90;;;;;;5021852;28;20219;-77
2021/06/09 00:23:50;;;;;;;21.30;19.27;;;14.70;99.90;;;;;;5021697;28;20238;-77
2021/06/09 00:26:20;;;;;;;19.77;17.80;;;14.70;99.90;;;;;;5021590;28;20203;-77
2021/06/09 00:28:47;;;;;;;18.20;16.30;;;14.70;99.90;;;;;;5016386;28;20239;-77
2021/06/09 00:31:14;;;;;;;19.67;17.57;;;14.70;99.90;;;;;;5025239;28;20714;-77
2021/06/09 00:33:41;;;;;;;18.90;17.00;;;14.70;99.90;;;;;;5019863;28;20222;-77
2021/06/09 00:36:07;;;;;;;18.57;16.70;;;14.70;99.90;;;;;;5020898;28;20202;-77
2021/06/09 00:38:34;;;;;;;20.70;18.70;;;14.60;99.90;;;;;;5022690;28;20188;-77
2021/06/09 00:41:01;;;;;;;21.70;19.67;;;14.70;99.90;;;;;;5019890;28;20259;-77
2021/06/09 00:43:32;;;;;;;20.50;18.60;;;14.70;99.90;;;;;;5021549;28;20739;-78
2021/06/09 00:46:00;;;;;;;22.90;20.70;;;14.70;99.90;;;;;;5020202;28;20192;-77
2021/06/09 00:48:29;;;;;;;23.07;20.77;;;14.60;99.90;;;;;;5017574;28;20588;-77
2021/06/09 00:50:58;;;;;;;21.57;19.37;;;14.60;99.90;;;;;;5019547;28;20220;-77
2021/06/09 00:53:27;;;;;;;21.33;19.13;;;14.60;99.90;;;;;;5019816;28;20243;-77
2021/06/09 00:55:54;;;;;;;17.60;15.80;;;14.50;99.90;;;;;;5020967;28;20195;-77
2021/06/09 00:58:22;;;;;;;18.20;16.40;;;14.60;99.90;;;;;;5021488;28;20704;-77
2021/06/09 01:00:50;;;;;;;19.63;17.63;;;14.60;99.90;;;;;;5022373;28;20215;-77
2021/06/09 01:03:17;;;;;;;18.50;16.60;;;14.50;99.90;;;;;;5022346;28;20234;-77
2021/06/09 01:05:44;;;;;;;18.13;16.27;;;14.50;99.90;;;;;;5010770;28;20205;-78
2021/06/09 01:08:12;;;;;;;18.53;16.63;;;14.50;99.90;;;;;;5010455;28;20211;-77
2021/06/09 01:10:38;;;;;;;17.07;15.27;;;14.50;99.90;;;;;;5020789;28;20222;-77
2021/06/09 01:13:04;;;;;;;17.73;15.83;;;14.50;99.90;;;;;;5019343;28;20227;-78
2021/06/09 01:15:31;;;;;;;18.50;16.50;;;14.50;99.90;;;;;;5020903;28;20249;-77
2021/06/09 01:17:59;;;;;;;19.47;17.03;;;14.50;99.90;;;;;;5019512;28;20624;-77
2021/06/09 01:20:26;;;;;;;19.43;16.97;;;14.50;99.90;;;;;;5024033;28;20192;-77
2021/06/09 01:22:54;;;;;;;16.83;15.13;;;14.50;99.90;;;;;;5020218;28;20219;-77
2021/06/09 01:25:21;;;;;;;15.10;13.50;;;14.50;99.90;;;;;;5016982;28;20204;-77
2021/06/09 01:27:49;;;;;;;15.43;13.90;;;14.50;99.90;;;;;;5021439;28;20210;-76
2021/06/09 01:30:16;;;;;;;16.63;14.90;;;14.50;99.90;;;;;;5019312;28;20340;-78
2021/06/09 01:32:43;;;;;;;18.00;16.20;;;14.40;99.90;;;;;;5018218;28;20258;-77
2021/06/09 01:35:10;;;;;;;19.23;15.30;;;14.50;99.90;;;;;;5021620;28;20207;-76
2021/06/09 01:37:37;;;;;;;16.23;13.93;;;14.50;99.90;;;;;;5017743;28;20257;-77
2021/06/09 01:40:08;;;;;;;15.47;13.87;;;14.40;99.90;;;;;;5023677;28;20195;-78
2021/06/09 01:42:36;;;;;;;13.83;12.37;;;14.40;99.90;;;;;;5023759;28;20253;-77
2021/06/09 01:45:03;;;;;;;15.47;13.37;;;14.40;99.90;;;;;;5021747;28;20283;-77
2021/06/09 01:47:29;;;;;;;15.57;13.90;;;14.40;99.90;;;;;;5020834;28;20223;-77
2021/06/09 01:49:56;;;;;;;15.77;14.17;;;14.40;99.90;;;;;;5017439;28;20237;-76
2021/06/09 01:52:22;;;;;;;16.17;14.53;;;14.40;99.90;;;;;;5015386;28;20196;-77
2021/06/09 01:54:49;;;;;;;19.07;16.53;;;14.40;99.90;;;;;;5022173;28;20282;-77
2021/06/09 01:57:17;;;;;;;17.70;15.63;;;14.40;99.90;;;;;;5019246;28;20223;-77
2021/06/09 01:59:43;;;;;;;17.80;16.00;;;14.30;99.90;;;;;;5021404;28;20198;-77
2021/06/09 02:02:11;;;;;;;19.27;17.23;;;14.30;99.90;;;;;;5019921;28;20743;-77
2021/06/09 02:04:40;;;;;;;19.83;17.73;;;14.30;99.90;;;;;;5022321;28;20263;-76
2021/06/09 02:07:06;;;;;;;18.90;16.90;;;14.30;99.90;;;;;;5019466;28;20231;-77
2021/06/09 02:09:37;;;;;;;20.47;18.30;;;14.30;99.90;;;;;;5015928;28;20346;-77
2021/06/09 02:12:05;;;;;;;20.03;17.90;;;14.40;99.90;;;;;;5010372;28;20197;-77
2021/06/09 02:14:33;;;;;;;21.07;18.97;;;14.40;99.90;;;;;;5018404;28;20216;-77
2021/06/09 02:16:59;;;;;;;18.23;16.23;;;14.40;99.90;;;;;;5018681;28;20203;-77
2021/06/09 02:19:27;;;;;;;20.07;17.97;;;14.40;99.90;;;;;;5021149;28;20200;-77
2021/06/09 02:21:53;;;;;;;18.43;16.53;;;14.40;99.90;;;;;;5020545;28;20223;-77
2021/06/09 02:24:20;;;;;;;18.43;16.50;;;14.40;99.90;;;;;;5015974;28;20215;-77
2021/06/09 02:26:49;;;;;;;17.77;15.97;;;14.40;99.90;;;;;;5018099;28;20195;-77
2021/06/09 02:29:16;;;;;;;17.83;16.13;;;14.40;99.90;;;;;;5016754;28;20276;-77
2021/06/09 02:31:47;;;;;;;16.70;15.03;;;14.40;99.90;;;;;;5011681;28;20203;-76
2021/06/09 02:34:14;;;;;;;18.13;16.10;;;14.40;99.90;;;;;;5021168;28;20212;-79
2021/06/09 02:36:42;;;;;;;17.67;15.77;;;14.40;99.90;;;;;;5020608;28;20200;-77
2021/06/09 02:39:09;;;;;;;19.40;17.30;;;14.40;99.90;;;;;;5020569;28;20231;-77
2021/06/09 02:41:36;;;;;;;17.87;15.97;;;14.40;99.90;;;;;;5026195;28;20219;-77
2021/06/09 02:44:03;;;;;;;19.20;16.23;;;14.40;99.90;;;;;;5008588;28;20253;-77
2021/06/09 02:46:34;;;;;;;18.10;16.17;;;14.40;99.90;;;;;;5013235;28;20674;-77
2021/06/09 02:49:05;;;;;;;16.97;15.27;;;14.40;99.90;;;;;;5011256;28;20662;-77
2021/06/09 02:51:40;;;;;;;18.27;15.30;;;14.40;99.90;;;;;;5014428;28;20200;-77
2021/06/09 02:54:11;;;;;;;18.03;16.13;;;14.40;99.90;;;;;;5014307;28;20234;-76
2021/06/09 02:56:46;;;;;;;21.00;15.00;;;14.40;99.90;;;;;;5018658;28;20207;-76
2021/06/09 02:59:21;;;;;;;19.43;17.37;;;14.40;99.90;;;;;;5018359;28;20260;-77
2021/06/09 03:01:58;;;;;;;18.63;16.60;;;14.50;99.90;;;;;;5011856;28;20216;-77
2021/06/09 03:04:34;;;;;;;17.90;14.83;;;14.40;99.90;;;;;;5023941;28;20212;-77
2021/06/09 03:07:05;;;;;;;18.57;16.67;;;14.40;99.90;;;;;;5018399;28;20203;-77
2021/06/09 03:09:37;;;;;;;17.97;16.00;;;14.40;99.90;;;;;;5025796;28;20192;-80
2021/06/09 03:12:11;;;;;;;17.17;15.40;;;14.40;99.90;;;;;;5023733;28;20184;-77
2021/06/09 03:17:33;;;;;;;18.27;15.23;;;14.40;99.90;;;;;;5023546;28;20188;-77
2021/06/09 03:20:06;;;;;;;17.67;15.77;;;14.40;99.90;;;;;;5027142;28;20188;-77
2021/06/09 03:22:40;;;;;;;16.50;14.80;;;14.40;99.90;;;;;;5015830;28;20743;-76
2021/06/09 03:25:07;;;;;;;17.90;16.00;;;14.40;99.90;;;;;;5023382;28;20578;-76
2021/06/09 03:27:40;;;;;;;19.17;16.10;;;14.40;99.90;;;;;;5019444;28;20208;-76
2021/06/09 03:30:11;;;;;;;16.60;14.90;;;14.40;99.90;;;;;;5021035;28;20207;-76
2021/06/09 03:32:45;;;;;;;19.87;16.80;;;14.40;99.90;;;;;;5024826;28;20203;-76
2021/06/09 03:35:18;;;;;;;19.97;17.90;;;14.40;99.90;;;;;;5018122;28;20196;-76
2021/06/09 03:37:51;;;;;;;19.30;16.57;;;14.40;99.90;;;;;;5024019;28;20197;-76
2021/06/09 03:40:21;;;;;;;20.40;16.37;;;14.40;99.90;;;;;;5023592;28;20270;-76
2021/06/09 03:42:53;;;;;;;18.50;16.40;;;14.50;99.90;;;;;;5018404;28;20226;-76
2021/06/09 03:45:22;;;;;;;16.83;15.00;;;14.50;99.90;;;;;;5024125;28;20208;-76
2021/06/09 03:47:51;;;;;;;16.57;14.67;;;14.50;99.90;;;;;;5022373;28;20203;-76
2021/06/09 03:50:19;;;;;;;17.07;15.37;;;14.60;99.90;;;;;;5020211;28;20206;-76
2021/06/09 03:52:47;;;;;;;17.57;15.63;;;14.60;99.90;;;;;;5023004;28;20195;-76
2021/06/09 03:55:17;;;;;;;15.93;14.33;;;14.60;99.90;;;;;;5020981;28;20203;-76
2021/06/09 03:57:45;;;;;;;18.07;16.17;;;14.70;99.90;;;;;;5019130;28;20255;-76
2021/06/09 04:00:12;;;;;;;16.53;14.73;;;14.70;99.90;;;;;;5023347;28;20545;-76
2021/06/09 04:02:42;;;;;;;19.40;17.50;;;14.70;99.90;;;;;;5016729;28;20215;-76
2021/06/09 04:05:10;;;;;;;17.83;16.13;;;14.70;99.90;;;;;;5017679;28;20210;-77
2021/06/09 04:07:40;;;;;;;19.07;17.23;;;14.80;99.90;;;;;;5023390;28;20219;-76
2021/06/09 04:10:09;;;;;;;20.03;18.33;;;14.80;99.90;;;;;;5022834;28;20196;-76
2021/06/09 04:12:36;;;;;;;22.23;20.43;;;14.80;99.90;;;;;;5024447;28;20189;-76
2021/06/09 04:15:04;;;;;;;24.00;21.90;;;14.90;99.90;;;;;;5016302;28;20659;-76
2021/06/09 04:17:32;;;;;;;22.10;20.13;;;14.90;99.90;;;;;;5023497;28;20996;-76
2021/06/09 04:20:02;;;;;;;18.47;16.97;;;14.90;99.90;;;;;;5012829;28;20195;-76
2021/06/09 04:22:28;;;;;;;21.23;19.47;;;15.00;99.90;;;;;;5016761;28;20242;-76
2021/06/09 04:24:56;;;;;;;20.80;19.13;;;15.00;99.90;;;;;;5020574;28;20212;-77
2021/06/09 04:27:24;;;;;;;17.57;16.07;;;15.00;99.90;;;;;;5022178;28;20205;-76
2021/06/09 04:29:52;;;;;;;19.27;17.67;;;15.10;99.90;;;;;;5024584;28;20199;-77
2021/06/09 04:32:18;;;;;;;19.43;17.80;;;15.10;99.90;;;;;;5021674;28;20197;-76
2021/06/09 04:34:46;;;;;;;19.17;17.67;;;15.20;99.90;;;;;;5024417;28;20220;-77
2021/06/09 04:37:13;;;;;;;22.27;20.57;;;15.20;99.90;;;;;;5022701;28;20636;-76
2021/06/09 04:39:41;;;;;;;21.53;19.80;;;15.30;99.90;;;;;;5017533;28;20696;-77
2021/06/09 04:42:10;;;;;;;20.40;18.80;;;15.30;99.90;;;;;;5019170;28;20284;-76
2021/06/09 04:44:40;;;;;;;19.90;18.40;;;15.40;99.90;;;;;;5049362;22;20262;-78
2021/06/09 04:47:07;;;;;;;21.43;19.83;;;15.40;99.90;;;;;;5028983;28;20280;-79
2021/06/09 04:49:35;;;;;;;20.07;18.57;;;15.50;99.90;;;;;;5030725;28;20621;-79
2021/06/09 04:52:02;;;;;;;20.23;18.70;;;15.60;99.90;;;;;;5032620;28;20545;-78
2021/06/09 04:54:29;;;;;;;12.00;10.73;;;15.80;99.90;;;;;;5016573;28;20221;-79
2021/06/09 04:56:56;;;;;;;10.77;9.77;;;15.80;99.90;;;;;;5007743;28;20270;-78
2021/06/09 04:59:24;;;;;;;11.13;10.03;;;15.90;99.90;;;;;;5006271;28;20201;-78
2021/06/09 05:01:50;;;;;;;10.80;9.80;;;16.00;99.90;;;;;;5006290;28;20216;-79
2021/06/09 05:04:17;;;;;;;14.97;13.67;;;16.00;99.90;;;;;;5005058;28;20222;-78
2021/06/09 05:06:43;;;;;;;17.10;15.80;;;16.00;99.90;;;;;;5008857;28;20258;-78
2021/06/09 05:09:11;;;;;;;17.10;15.80;;;16.10;99.90;;;;;;5006355;28;20205;-79
2021/06/09 05:11:41;;;;;;;17.53;16.13;;;16.20;99.90;;;;;;5011242;28;20236;-79
2021/06/09 05:14:14;;;;;;;19.37;17.87;;;16.40;99.90;;;;;;5009641;28;20234;-78
2021/06/09 05:16:45;;;;;;;19.03;17.53;;;16.50;99.90;;;;;;5004211;28;20217;-79
2021/06/09 05:19:14;;;;;;;18.03;16.53;;;16.40;99.90;;;;;;5006155;28;20200;-78
2021/06/09 05:21:40;;;;;;;17.10;15.60;;;16.50;99.90;;;;;;5006024;28;20209;-78
2021/06/09 05:24:10;;;;;;;16.20;14.80;;;16.50;99.90;;;;;;5006978;28;20311;-79
2021/06/09 05:26:36;;;;;;;17.53;16.13;;;16.50;99.90;;;;;;5008659;28;20203;-78
2021/06/09 05:29:06;;;;;;;16.30;15.00;;;16.70;99.90;;;;;;5006646;28;20194;-80
2021/06/09 05:31:33;;;;;;;16.00;14.70;;;16.80;99.90;;;;;;5009875;28;20276;-79
2021/06/09 05:34:02;;;;;;;14.43;13.13;;;16.80;99.90;;;;;;5008376;28;20221;-78
2021/06/09 05:36:30;;;;;;;21.63;19.93;;;16.90;99.90;;;;;;5005876;28;20226;-78
2021/06/09 05:38:57;;;;;;;11.87;10.67;;;16.90;99.90;;;;;;5004216;28;20218;-78
2021/06/09 05:41:24;;;;;;;14.37;13.07;;;16.80;99.90;;;;;;5005671;28;20206;-78
2021/06/09 05:43:51;;;;;;;17.07;15.53;;;17.00;99.90;;;;;;5007732;28;20229;-78
2021/06/09 05:46:19;;;;;;;15.10;13.70;;;17.20;99.90;;;;;;5009243;28;20317;-78
2021/06/09 05:48:47;;;;;;;13.90;12.50;;;17.40;99.90;;;;;;5006112;28;20195;-78
2021/06/09 05:51:17;;;;;;;14.10;12.57;;;17.80;99.90;;;;;;5010006;28;20208;-78
2021/06/09 05:53:44;;;;;;;21.30;19.50;;;18.20;99.90;;;;;;5004919;28;20224;-79
2021/06/09 05:56:12;;;;;;;13.30;11.90;;;18.50;99.90;;;;;;5009945;28;20255;-78
2021/06/09 05:58:39;;;;;;;20.27;18.57;;;18.60;99.90;;;;;;5003821;28;20234;-79
2021/06/09 06:01:09;;;;;;;16.53;15.07;;;18.60;99.90;;;;;;5005672;28;20227;-79
2021/06/09 06:03:37;;;;;;;13.63;12.33;;;18.60;99.90;;;;;;5008937;28;20274;-79
2021/06/09 06:06:08;;;;;;;21.37;19.77;;;18.70;99.90;;;;;;4999734;28;20197;-78
2021/06/09 06:08:38;;;;;;;13.40;12.20;;;18.70;99.90;;;;;;5003806;28;20258;-79
2021/06/09 06:11:06;;;;;;;21.80;20.20;;;18.70;99.90;;;;;;5004884;28;20248;-79
2021/06/09 06:13:33;;;;;;;21.03;19.43;;;18.50;99.90;;;;;;5004625;28;20593;-79
2021/06/09 06:15:59;;;;;;;19.67;18.27;;;18.50;99.90;;;;;;5011687;28;20197;-79
2021/06/09 06:18:34;;;;;;;19.57;18.13;;;18.40;99.90;;;;;;5003761;28;20206;-79
2021/06/09 06:21:01;;;;;;;19.77;18.17;;;18.50;99.90;;;;;;5013402;28;20216;-79
2021/06/09 06:23:27;;;;;;;18.70;17.30;;;18.50;99.90;;;;;;5004371;28;20232;-78
2021/06/09 06:25:56;;;;;;;19.87;17.93;;;18.50;99.90;;;;;;5003647;28;20203;-79
2021/06/09 06:28:23;;;;;;;19.80;18.20;;;18.50;99.90;;;;;;5005559;28;20600;-80
2021/06/09 06:30:50;;;;;;;18.87;17.57;;;18.50;99.90;;;;;;5008483;28;20664;-79
2021/06/09 06:33:17;;;;;;;18.50;17.20;;;18.50;99.90;;;;;;5008221;28;20212;-79
2021/06/09 06:35:45;;;;;;;19.27;17.90;;;18.60;99.90;;;;;;5004570;28;20193;-79
2021/06/09 06:38:13;;;;;;;18.90;17.60;;;18.60;99.90;;;;;;5012523;28;20198;-79
2021/06/09 06:40:42;;;;;;;17.93;16.63;;;18.60;99.90;;;;;;5007315;28;20225;-78
2021/06/09 06:43:10;;;;;;;18.07;16.77;;;18.70;99.90;;;;;;5006923;28;20793;-77
2021/06/09 06:45:38;;;;;;;18.30;16.90;;;18.80;99.90;;;;;;5012436;28;20729;-79
2021/06/09 06:48:06;;;;;;;17.73;16.47;;;19.00;99.90;;;;;;5014180;28;20646;-79
2021/06/09 06:50:32;;;;;;;18.50;17.00;;;19.10;99.90;;;;;;5009489;28;20210;-79
2021/06/09 06:53:04;;;;;;;18.17;16.87;;;19.10;99.90;;;;;;5012086;28;20198;-79
2021/06/09 06:55:31;;;;;;;18.23;17.00;;;19.10;99.90;;;;;;5015396;28;20226;-80
2021/06/09 06:57:58;;;;;;;18.43;17.13;;;19.10;99.90;;;;;;5008017;28;20659;-78
2021/06/09 07:00:26;;;;;;;19.10;17.70;;;19.00;99.90;;;;;;5008258;28;20195;-79
2021/06/09 07:02:55;;;;;;;19.37;17.87;;;19.00;99.90;;;;;;5011143;28;20221;-79
2021/06/09 07:05:24;;;;;;;19.77;18.33;;;19.10;99.90;;;;;;5012646;28;20220;-79
2021/06/09 07:07:54;;;;;;;20.57;18.97;;;19.10;99.90;;;;;;5008002;28;20220;-79
2021/06/09 07:10:22;;;;;;;19.93;18.43;;;19.20;99.90;;;;;;5014951;28;20213;-79
2021/06/09 07:12:49;;;;;;;19.37;17.97;;;19.30;99.90;;;;;;5006669;28;20205;-78
2021/06/09 07:15:19;;;;;;;19.37;17.97;;;19.50;99.90;;;;;;5007601;28;20230;-79
2021/06/09 07:17:49;;;;;;;19.93;18.53;;;19.70;99.90;;;;;;5004576;28;20198;-79
2021/06/09 07:20:19;;;;;;;21.27;19.47;;;19.80;99.90;;;;;;5008326;28;20689;-78
2021/06/09 07:22:46;;;;;;;20.40;19.00;;;19.90;99.90;;;;;;5008940;28;20230;-79
2021/06/09 07:25:13;;;;;;;20.23;18.63;;;20.00;99.90;;;;;;5011732;28;20221;-79
2021/06/09 07:27:42;;;;;;;20.57;19.07;;;20.20;99.90;;;;;;5006686;28;20237;-79
2021/06/09 07:30:12;;;;;;;13.73;12.53;;;20.50;99.90;;;;;;5007437;28;20675;-80
2021/06/09 07:32:41;;;;;;;19.03;17.63;;;20.70;99.90;;;;;;5007502;28;20686;-78
2021/06/09 07:35:11;;;;;;;18.27;16.90;;;20.90;99.90;;;;;;5007085;28;20278;-79
2021/06/09 07:37:43;;;;;;;12.27;11.07;;;21.00;99.90;;;;;;5010672;28;20220;-79
2021/06/09 07:40:14;;;;;;;13.70;12.60;;;21.00;99.90;;;;;;5009092;28;20776;-76
2021/06/09 07:42:47;;;;;;;12.83;11.53;;;21.10;99.90;;;;;;5006905;28;20217;-76
2021/06/09 07:45:16;;;;;;;18.57;17.07;;;21.10;99.90;;;;;;5010087;28;20232;-76
2021/06/09 07:47:46;;;;;;;20.10;18.43;;;21.00;99.90;;;;;;5005649;28;20204;-78
2021/06/09 07:50:15;;;;;;;20.03;18.50;;;21.00;99.90;;;;;;5006107;28;20189;-77
2021/06/09 07:52:42;;;;;;;17.57;16.07;;;21.20;99.90;;;;;;5005935;28;20198;-78
2021/06/09 07:55:11;;;;;;;16.47;15.10;;;21.40;99.90;;;;;;5013781;28;20216;-78
2021/06/09 07:57:40;;;;;;;12.60;11.40;;;21.70;99.90;;;;;;5004616;28;20316;-78
2021/06/09 08:00:10;;;;;;;13.03;11.23;;;21.80;99.90;;;;;;5004874;28;20731;-77
2021/06/09 08:02:40;;;;;;;18.43;16.93;;;21.90;99.90;;;;;;5005736;28;20220;-78
2021/06/09 08:05:08;;;;;;;19.10;17.67;;;22.20;99.90;;;;;;5007090;28;20725;-78
2021/06/09 08:07:37;;;;;;;18.80;17.17;;;22.30;99.90;;;;;;5008637;28;20207;-77
2021/06/09 08:10:07;;;;;;;23.23;21.33;;;22.30;99.90;;;;;;5008770;28;20681;-78
2021/06/09 08:12:34;;;;;;;20.80;19.07;;;22.40;99.90;;;;;;5008056;28;20193;-77
2021/06/09 08:15:00;;;;;;;22.33;20.63;;;22.30;99.90;;;;;;5007909;28;20291;-78
2021/06/09 08:17:27;;;;;;;24.27;22.40;;;22.40;99.90;;;;;;5004172;28;20204;-77
2021/06/09 08:19:54;;;;;;;24.47;22.47;;;22.30;99.90;;;;;;5005506;28;20733;-76
2021/06/09 08:22:20;;;;;;;24.30;22.10;;;22.30;99.90;;;;;;5005512;28;20209;-76
2021/06/09 08:24:48;;;;;;;24.67;22.57;;;22.20;99.90;;;;;;5008143;28;20221;-77
2021/06/09 08:27:15;;;;;;;24.10;22.10;;;22.10;99.90;;;;;;5008385;28;20263;-77
2021/06/09 08:29:41;;;;;;;23.17;21.27;;;22.00;99.90;;;;;;5004831;28;20250;-78
2021/06/09 08:32:08;;;;;;;24.30;22.30;;;22.20;99.90;;;;;;5008612;28;20201;-77
2021/06/09 08:34:34;;;;;;;24.43;22.43;;;22.30;99.90;;;;;;5004274;28;20633;-77
2021/06/09 08:37:01;;;;;;;23.23;21.43;;;22.50;99.90;;;;;;5010060;28;20211;-77
2021/06/09 08:39:28;;;;;;;23.13;21.33;;;22.70;99.90;;;;;;5013563;28;20212;-77
2021/06/09 08:41:56;;;;;;;23.57;21.77;;;23.40;99.90;;;;;;5007681;28;20232;-77
2021/06/09 08:44:24;;;;;;;23.47;21.60;;;23.50;99.90;;;;;;5010700;28;20227;-77
2021/06/09 08:46:53;;;;;;;23.00;21.17;;;23.60;99.90;;;;;;5013442;28;20201;-77
2021/06/09 08:49:21;;;;;;;24.03;22.13;;;23.60;99.90;;;;;;5013212;28;20214;-77
2021/06/09 08:51:49;;;;;;;24.30;22.43;;;23.50;99.90;;;;;;5004962;28;20200;-76
2021/06/09 08:54:16;;;;;;;22.70;21.00;;;23.30;99.90;;;;;;5010920;28;20212;-77
2021/06/09 08:56:42;;;;;;;21.73;20.13;;;23.60;99.90;;;;;;5004665;28;20189;-77
2021/06/09 08:59:10;;;;;;;22.37;20.77;;;24.00;99.90;;;;;;5007748;28;20733;-77
2021/06/09 09:01:36;;;;;;;22.63;20.90;;;23.90;99.90;;;;;;5011145;28;20202;-78
2021/06/09 09:04:03;;;;;;;22.07;20.27;;;23.70;99.90;;;;;;5009581;28;20215;-77
2021/06/09 09:06:30;;;;;;;23.10;21.40;;;23.70;99.90;;;;;;5011973;28;20196;-76
2021/06/09 09:08:57;;;;;;;21.40;19.70;;;23.40;99.90;;;;;;5013186;28;20192;-76
2021/06/09 09:11:24;;;;;;;24.50;22.50;;;23.40;99.90;;;;;;5011331;28;20215;-77
2021/06/09 09:13:51;;;;;;;24.67;22.67;;;23.10;99.90;;;;;;5004471;28;20212;-76
2021/06/09 09:16:18;;;;;;;22.63;20.83;;;23.30;99.90;;;;;;5003146;28;20197;-78
2021/06/09 09:18:46;;;;;;;22.17;20.47;;;24.10;99.90;;;;;;5007682;28;20228;-77
2021/06/09 09:21:31;;;;;;;22.90;21.10;;;25.00;99.90;;;;;;5008758;28;20235;-77
2021/06/09 09:23:57;;;;;;;24.13;22.03;;;25.00;99.90;;;;;;5006672;28;20210;-78
2021/06/09 09:26:26;;;;;;;21.90;20.30;;;25.00;99.90;;;;;;5006924;28;20258;-77
2021/06/09 09:29:12;;;;;;;25.47;23.57;;;25.40;99.90;;;;;;5005931;28;20195;-77
2021/06/09 09:31:52;;;;;;;23.07;21.37;;;25.60;99.90;;;;;;5003788;28;20247;-78
2021/06/09 09:34:32;;;;;;;25.50;23.40;;;25.50;99.90;;;;;;5003264;28;20223;-77
2021/06/09 09:37:05;;;;;;;24.33;22.47;;;25.40;99.90;;;;;;5001004;28;20576;-77
2021/06/09 09:39:31;;;;;;;21.57;20.07;;;25.60;99.90;;;;;;5009000;28;20207;-79
2021/06/09 09:42:15;;;;;;;21.57;19.93;;;25.50;99.90;;;;;;5006113;28;20212;-77
2021/06/09 09:44:41;;;;;;;23.00;21.30;;;25.60;99.90;;;;;;5006021;28;20242;-77
2021/06/09 09:47:15;;;;;;;21.03;19.43;;;26.00;99.90;;;;;;5008766;28;20204;-77
2021/06/09 09:49:41;;;;;;;21.90;20.30;;;26.10;99.90;;;;;;5002910;28;20208;-77
2021/06/09 09:52:07;;;;;;;22.23;20.53;;;26.10;99.90;;;;;;5004205;28;20207;-77
2021/06/09 09:54:35;;;;;;;24.97;22.97;;;26.20;99.90;;;;;;5003829;28;20225;-78
2021/06/09 09:57:04;;;;;;;22.70;21.00;;;26.00;99.90;;;;;;5000650;28;20583;-77
2021/06/09 09:59:31;;;;;;;21.17;19.67;;;26.20;99.90;;;;;;5008766;28;20575;-77
2021/06/09 10:02:02;;;;;;;23.97;22.07;;;26.30;99.90;;;;;;5005983;28;20212;-77
2021/06/09 10:04:33;;;;;;;22.53;20.93;;;26.00;99.90;;;;;;5003819;28;20299;-76
2021/06/09 10:07:00;;;;;;;23.17;21.57;;;26.20;99.90;;;;;;5005645;28;20669;-77
2021/06/09 10:09:28;;;;;;;23.07;21.30;;;26.00;99.90;;;;;;5004709;28;20275;-76
2021/06/09 10:11:55;;;;;;;21.63;20.03;;;25.90;99.90;;;;;;5002391;28;20201;-77
2021/06/09 10:14:24;;;;;;;24.00;22.03;;;26.00;99.90;;;;;;5002474;28;20721;-77
2021/06/09 10:16:58;;;;;;;22.77;21.17;;;25.80;99.90;;;;;;5007504;28;20693;-76
2021/06/09 10:19:30;;;;;;;21.47;19.87;;;25.80;99.90;;;;;;5007084;28;20208;-77
2021/06/09 10:21:58;;;;;;;21.73;20.13;;;26.30;99.90;;;;;;5005833;28;20196;-77
2021/06/09 10:24:26;;;;;;;20.20;18.70;;;26.90;99.90;;;;;;5003634;28;20667;-77
2021/06/09 10:26:55;;;;;;;23.40;21.50;;;26.50;99.90;;;;;;5002352;28;20208;-76
2021/06/09 10:29:22;;;;;;;23.60;21.60;;;26.40;99.90;;;;;;5011365;28;20287;-76
2021/06/09 10:31:52;;;;;;;22.83;21.13;;;26.10;99.90;;;;;;5010573;28;20197;-79
2021/06/09 10:34:19;;;;;;;22.93;20.93;;;25.80;99.90;;;;;;4999058;28;20758;-77
2021/06/09 10:36:48;;;;;;;21.70;20.00;;;26.00;99.90;;;;;;5007826;28;20197;-78
2021/06/09 10:39:16;;;;;;;22.53;20.93;;;26.10;99.90;;;;;;5008057;28;20195;-77
2021/06/09 10:41:44;;;;;;;22.37;20.57;;;25.90;99.90;;;;;;5003826;28;20727;-77
2021/06/09 10:44:12;;;;;;;24.03;22.07;;;25.80;99.90;;;;;;5043091;22;20231;-77
2021/06/09 10:46:40;;;;;;;22.00;20.30;;;25.90;99.90;;;;;;5050507;28;20225;-77
2021/06/09 10:49:07;;;;;;;23.67;21.77;;;25.80;99.90;;;;;;5051046;28;20191;-77
2021/06/09 10:51:34;;;;;;;22.20;20.50;;;25.30;99.90;;;;;;5050908;28;20191;-77
2021/06/09 10:54:05;;;;;;;24.33;22.40;;;25.30;99.90;;;;;;5050790;28;20275;-77
2021/06/09 10:56:31;;;;;;;23.00;21.30;;;25.40;99.90;;;;;;5036754;28;20591;-77
2021/06/09 10:58:57;;;;;;;22.50;20.70;;;25.30;99.90;;;;;;5040351;28;20187;-77
2021/06/09 11:01:25;;;;;;;22.80;20.90;;;25.30;99.90;;;;;;5040218;28;20196;-77
2021/06/09 11:03:56;;;;;;;23.00;21.00;;;25.10;99.90;;;;;;5035201;28;20219;-77
2021/06/09 11:06:37;;;;;;;21.67;20.03;;;25.10;99.90;;;;;;5033205;28;20210;-76
2021/06/09 11:09:29;;;;;;;21.63;19.93;;;25.30;99.90;;;;;;5042601;28;20183;-77
2021/06/09 11:12:19;;;;;;;21.80;20.10;;;25.50;99.90;;;;;;5025725;28;20588;-77
2021/06/09 11:14:48;;;;;;;22.67;20.87;;;25.30;99.90;;;;;;5037715;28;20253;-76
2021/06/09 11:17:15;;;;;;;23.40;21.50;;;25.40;99.90;;;;;;5040769;28;20202;-78
2021/06/09 11:19:45;;;;;;;22.00;20.20;;;25.10;99.90;;;;;;5030824;28;20203;-76
2021/06/09 11:22:20;;;;;;;21.83;20.10;;;24.90;99.90;;;;;;5038919;28;20222;-77
2021/06/09 11:25:11;;;;;;;21.53;19.80;;;24.90;99.90;;;;;;5040630;28;20218;-77
2021/06/09 11:27:47;;;;;;;24.20;21.87;;;25.10;99.90;;;;;;5045310;28;20210;-77
2021/06/09 11:30:43;;;;;;;22.43;20.63;;;25.00;99.90;;;;;;5040078;28;20211;-77
2021/06/09 11:33:11;;;;;;;22.73;20.80;;;24.80;99.90;;;;;;5042556;28;20264;-77
2021/06/09 11:35:42;;;;;;;21.30;19.50;;;25.00;99.90;;;;;;5044511;28;20226;-76
2021/06/09 11:38:22;;;;;;;22.23;20.43;;;25.30;99.90;;;;;;5042519;28;20198;-76
2021/06/09 11:40:53;;;;;;;21.10;19.40;;;25.40;99.90;;;;;;5042345;28;20199;-77
2021/06/09 11:43:21;;;;;;;20.67;18.97;;;25.30;99.90;;;;;;5044176;28;20205;-77
2021/06/09 11:45:51;;;;;;;17.73;16.37;;;25.10;99.90;;;;;;5038838;28;20221;-77
2021/06/09 11:48:21;;;;;;;20.63;19.13;;;24.90;99.90;;;;;;5038033;28;20611;-77
2021/06/09 11:50:50;;;;;;;18.30;16.83;;;24.70;99.90;;;;;;5045549;28;20198;-77
2021/06/09 11:53:36;;;;;;;19.37;17.77;;;24.50;99.90;;;;;;5040396;28;20200;-77
2021/06/09 11:56:16;;;;;;;22.27;20.57;;;24.30;99.90;;;;;;5042051;28;20286;-77
2021/06/09 11:58:43;;;;;;;22.00;20.27;;;24.10;99.90;;;;;;5040698;28;20668;-77
2021/06/09 12:01:12;;;;;;;20.87;19.17;;;24.10;99.90;;;;;;5041849;28;20225;-76
2021/06/09 12:03:40;;;;;;;23.10;21.30;;;24.00;99.90;;;;;;5044716;28;20239;-76
2021/06/09 12:06:14;;;;;;;22.73;20.93;;;23.80;99.90;;;;;;5041893;28;20188;-77
2021/06/09 12:08:40;;;;;;;23.50;21.60;;;23.80;99.90;;;;;;5044622;28;20719;-77
2021/06/09 12:11:07;;;;;;;22.67;20.87;;;23.90;99.90;;;;;;5034290;28;20207;-77
2021/06/09 12:13:35;;;;;;;21.83;20.23;;;24.00;99.90;;;;;;5043706;28;20263;-77
2021/06/09 12:16:04;;;;;;;22.00;20.30;;;24.10;99.90;;;;;;5037530;28;20216;-77
2021/06/09 12:18:30;;;;;;;20.13;18.43;;;24.30;99.90;;;;;;5043266;28;20589;-77
2021/06/09 12:21:08;;;;;;;20.17;18.40;;;24.50;99.90;;;;;;5043580;28;20215;-77
2021/06/09 12:23:36;;;;;;;17.73;16.00;;;24.70;99.90;;;;;;5043733;28;20203;-76
2021/06/09 12:26:03;;;;;;;14.23;12.77;;;24.80;99.90;;;;;;5031923;28;20656;-77
2021/06/09 12:28:30;;;;;;;15.07;13.47;;;24.70;99.90;;;;;;5037928;28;20208;-77
2021/06/09 12:30:59;;;;;;;13.53;12.20;;;24.60;99.90;;;;;;5044541;28;20197;-76
2021/06/09 12:33:40;;;;;;;12.70;11.50;;;24.70;99.90;;;;;;5037180;28;20239;-77
2021/06/09 12:36:10;;;;;;;20.93;19.43;;;24.60;99.90;;;;;;5037488;28;20695;-77
2021/06/09 12:38:38;;;;;;;22.17;20.50;;;24.30;99.90;;;;;;5041862;28;20207;-77
2021/06/09 12:41:07;;;;;;;21.77;20.07;;;24.20;99.90;;;;;;5041215;28;20214;-77